This is the latest recevied weather packets stored in our database for station/object KC8QDR-1. If no packets are shown the sender has not sent any weather packets the latest 10 day(s).
| Time | Temp. | Humidity | Pressure | Rain* | Wind** | Luminosity | Snow |
|---|---|---|---|---|---|---|---|
| 1777915725 | 21.67° C | 49% | 1013.4 hPa | 0 mm | 2.24 m/s, 184° | - | - |
| 1777915125 | 21.67° C | 50% | 1013.3 hPa | 0 mm | 3.58 m/s, 230° | - | - |
| 1777914528 | 20.56° C | 49% | 1013.3 hPa | 0 mm | 5.81 m/s, 182° | - | - |
| 1777913925 | 20.56° C | 52% | 1013.4 hPa | 0 mm | 3.58 m/s, 208° | - | - |
| 1777913325 | 20° C | 51% | 1013.4 hPa | 0 mm | 2.68 m/s, 176° | - | - |
| 1777912727 | 20° C | 54% | 1013.5 hPa | 0 mm | 2.24 m/s, 187° | - | - |
| 1777912125 | 19.44° C | 49% | 1013.6 hPa | 0 mm | 0.89 m/s, 223° | - | - |
| 1777911525 | 18.89° C | 52% | 1013.7 hPa | 0 mm | 3.13 m/s, 190° | - | - |
| 1777910927 | 18.89° C | 52% | 1013.8 hPa | 0 mm | 1.79 m/s, 220° | - | - |
| 1777910325 | 18.89° C | 54% | 1013.8 hPa | 0 mm | 3.13 m/s, 210° | - | - |
| 1777909725 | 18.89° C | 52% | 1013.9 hPa | 0 mm | 4.47 m/s, 156° | - | - |
| 1777909125 | 18.89° C | 52% | 1014 hPa | 0 mm | 2.68 m/s, 208° | - | - |
| 1777908527 | 18.89° C | 54% | 1014 hPa | 0 mm | 3.58 m/s, 189° | - | - |
| 1777907925 | 18.33° C | 54% | 1014 hPa | 0 mm | 2.24 m/s, 206° | - | - |
| 1777907326 | 18.33° C | 55% | 1014.3 hPa | 0 mm | 1.79 m/s, 193° | - | - |
| 1777906725 | 18.33° C | 52% | 1014.2 hPa | 0 mm | 2.24 m/s, 189° | - | - |
| 1777906127 | 17.78° C | 52% | 1014.3 hPa | 0 mm | 0.45 m/s, 151° | - | - |
| 1777905525 | 17.78° C | 54% | 1014.4 hPa | 0 mm | 3.13 m/s, 215° | - | - |
| 1777904925 | 17.22° C | 55% | 1014.4 hPa | 0 mm | 1.34 m/s, 211° | - | - |
| 1777904325 | 17.22° C | 53% | 1014.4 hPa | 0 mm | 1.34 m/s, 234° | - | - |
| 1777903725 | 16.67° C | 55% | 1014.4 hPa | 0 mm | 2.24 m/s, 187° | - | - |
| 1777903125 | 16.67° C | 54% | 1014.5 hPa | 0 mm | 1.34 m/s, 215° | - | - |
| 1777902525 | 16.11° C | 55% | 1014.6 hPa | 0 mm | 1.79 m/s, 180° | - | - |
| 1777901925 | 16.11° C | 58% | 1014.6 hPa | 0 mm | 3.58 m/s, 187° | - | - |
| 1777901330 | 16.11° C | 55% | 1014.6 hPa | 0 mm | 0.89 m/s, 204° | - | - |
* Rain latest hour (hover to see other rain measurements)
** Current wind speed in m/s (hover to see current wind gust speed)